sensor_id;sensor_type;location;lat;lon;timestamp;temperature;humidity
22633;DHT22;11483;55.828;37.488;2023-05-07T00:00:38;0.80;99.90
22633;DHT22;11483;55.828;37.488;2023-05-07T00:03:04;0.80;99.90
22633;DHT22;11483;55.828;37.488;2023-05-07T00:05:30;0.80;99.90
22633;DHT22;11483;55.828;37.488;2023-05-07T00:07:56;0.80;99.90
22633;DHT22;11483;55.828;37.488;2023-05-07T00:10:21;0.80;99.90
22633;DHT22;11483;55.828;37.488;2023-05-07T00:12:47;0.70;99.90
22633;DHT22;11483;55.828;37.488;2023-05-07T00:15:13;0.70;99.90
22633;DHT22;11483;55.828;37.488;2023-05-07T00:17:39;0.70;99.90
22633;DHT22;11483;55.828;37.488;2023-05-07T00:20:05;0.60;99.90
22633;DHT22;11483;55.828;37.488;2023-05-07T00:22:32;0.60;99.90
22633;DHT22;11483;55.828;37.488;2023-05-07T00:24:58;0.60;99.90
22633;DHT22;11483;55.828;37.488;2023-05-07T00:27:24;0.60;99.90
22633;DHT22;11483;55.828;37.488;2023-05-07T00:29:50;0.60;99.90
22633;DHT22;11483;55.828;37.488;2023-05-07T00:32:16;0.50;99.90
22633;DHT22;11483;55.828;37.488;2023-05-07T00:34:43;0.50;99.90
22633;DHT22;11483;55.828;37.488;2023-05-07T00:37:09;0.50;99.90
22633;DHT22;11483;55.828;37.488;2023-05-07T00:39:35;0.60;99.90
22633;DHT22;11483;55.828;37.488;2023-05-07T00:42:02;0.50;99.90
22633;DHT22;11483;55.828;37.488;2023-05-07T00:44:28;0.50;99.90
22633;DHT22;11483;55.828;37.488;2023-05-07T00:46:58;0.50;99.90
22633;DHT22;11483;55.828;37.488;2023-05-07T00:49:35;0.50;99.90
22633;DHT22;11483;55.828;37.488;2023-05-07T00:52:03;0.50;99.90
22633;DHT22;11483;55.828;37.488;2023-05-07T00:54:29;0.50;99.90
22633;DHT22;11483;55.828;37.488;2023-05-07T00:56:55;0.50;99.90
22633;DHT22;11483;55.828;37.488;2023-05-07T00:59:21;0.50;99.90
22633;DHT22;11483;55.828;37.488;2023-05-07T01:01:47;0.50;99.90
22633;DHT22;11483;55.828;37.488;2023-05-07T01:04:13;0.50;99.90
22633;DHT22;11483;55.828;37.488;2023-05-07T01:06:39;0.40;99.90
22633;DHT22;11483;55.828;37.488;2023-05-07T01:09:06;0.50;99.90
22633;DHT22;11483;55.828;37.488;2023-05-07T01:11:32;0.50;99.90
22633;DHT22;11483;55.828;37.488;2023-05-07T01:13:59;0.50;99.90
22633;DHT22;11483;55.828;37.488;2023-05-07T01:16:25;0.50;99.90
22633;DHT22;11483;55.828;37.488;2023-05-07T01:18:52;0.50;99.90
22633;DHT22;11483;55.828;37.488;2023-05-07T01:21:18;0.40;99.90
22633;DHT22;11483;55.828;37.488;2023-05-07T01:23:47;0.40;99.90
22633;DHT22;11483;55.828;37.488;2023-05-07T01:26:13;0.40;99.90
22633;DHT22;11483;55.828;37.488;2023-05-07T01:28:39;0.40;99.90
22633;DHT22;11483;55.828;37.488;2023-05-07T01:31:05;0.40;99.90
22633;DHT22;11483;55.828;37.488;2023-05-07T01:33:34;0.40;99.90
22633;DHT22;11483;55.828;37.488;2023-05-07T01:36:00;0.40;99.90
22633;DHT22;11483;55.828;37.488;2023-05-07T01:38:30;0.30;99.90
22633;DHT22;11483;55.828;37.488;2023-05-07T01:40:56;0.30;99.90
22633;DHT22;11483;55.828;37.488;2023-05-07T01:43:22;0.30;99.90
22633;DHT22;11483;55.828;37.488;2023-05-07T01:45:49;0.30;99.90
22633;DHT22;11483;55.828;37.488;2023-05-07T01:48:15;0.30;99.90
22633;DHT22;11483;55.828;37.488;2023-05-07T01:50:42;0.20;99.90
22633;DHT22;11483;55.828;37.488;2023-05-07T01:53:08;0.20;99.90
22633;DHT22;11483;55.828;37.488;2023-05-07T01:55:34;0.30;99.90
22633;DHT22;11483;55.828;37.488;2023-05-07T01:58:02;0.30;99.90
22633;DHT22;11483;55.828;37.488;2023-05-07T02:00:28;0.20;99.90
22633;DHT22;11483;55.828;37.488;2023-05-07T02:02:54;0.30;99.90
22633;DHT22;11483;55.828;37.488;2023-05-07T02:05:20;0.30;99.90
22633;DHT22;11483;55.828;37.488;2023-05-07T02:07:46;0.30;99.90
22633;DHT22;11483;55.828;37.488;2023-05-07T02:10:12;0.30;99.90
22633;DHT22;11483;55.828;37.488;2023-05-07T02:12:38;0.30;99.90
22633;DHT22;11483;55.828;37.488;2023-05-07T02:15:04;0.40;99.90
22633;DHT22;11483;55.828;37.488;2023-05-07T02:17:31;0.40;99.90
22633;DHT22;11483;55.828;37.488;2023-05-07T02:19:59;0.40;99.90
22633;DHT22;11483;55.828;37.488;2023-05-07T02:22:25;0.40;99.90
22633;DHT22;11483;55.828;37.488;2023-05-07T02:24:51;0.50;99.90
22633;DHT22;11483;55.828;37.488;2023-05-07T02:27:17;0.40;99.90
22633;DHT22;11483;55.828;37.488;2023-05-07T02:29:43;0.40;99.90
22633;DHT22;11483;55.828;37.488;2023-05-07T02:32:08;0.50;99.90
22633;DHT22;11483;55.828;37.488;2023-05-07T02:34:34;0.50;99.90
22633;DHT22;11483;55.828;37.488;2023-05-07T02:37:00;0.40;99.90
22633;DHT22;11483;55.828;37.488;2023-05-07T02:39:26;0.50;99.90
22633;DHT22;11483;55.828;37.488;2023-05-07T02:41:52;0.50;99.90
22633;DHT22;11483;55.828;37.488;2023-05-07T02:44:18;0.40;99.90
22633;DHT22;11483;55.828;37.488;2023-05-07T02:46:43;0.50;99.90
22633;DHT22;11483;55.828;37.488;2023-05-07T02:49:09;0.40;99.90
22633;DHT22;11483;55.828;37.488;2023-05-07T02:51:35;0.50;99.90
22633;DHT22;11483;55.828;37.488;2023-05-07T02:54:01;0.50;99.90
22633;DHT22;11483;55.828;37.488;2023-05-07T02:56:27;0.50;99.90
22633;DHT22;11483;55.828;37.488;2023-05-07T02:58:53;0.50;99.90
22633;DHT22;11483;55.828;37.488;2023-05-07T03:01:19;0.60;99.90
22633;DHT22;11483;55.828;37.488;2023-05-07T03:03:46;0.60;99.90
22633;DHT22;11483;55.828;37.488;2023-05-07T03:06:12;0.60;99.90
22633;DHT22;11483;55.828;37.488;2023-05-07T03:08:38;0.70;99.90
22633;DHT22;11483;55.828;37.488;2023-05-07T03:11:04;0.80;99.90
22633;DHT22;11483;55.828;37.488;2023-05-07T03:13:30;0.80;99.90
22633;DHT22;11483;55.828;37.488;2023-05-07T03:15:56;0.90;99.90
22633;DHT22;11483;55.828;37.488;2023-05-07T03:18:22;1.00;99.90
22633;DHT22;11483;55.828;37.488;2023-05-07T03:20:48;1.00;99.90
22633;DHT22;11483;55.828;37.488;2023-05-07T03:23:14;1.00;99.90
22633;DHT22;11483;55.828;37.488;2023-05-07T03:25:40;1.20;99.90
22633;DHT22;11483;55.828;37.488;2023-05-07T03:28:06;1.30;99.90
22633;DHT22;11483;55.828;37.488;2023-05-07T03:30:31;1.40;99.90
22633;DHT22;11483;55.828;37.488;2023-05-07T03:32:57;1.40;99.90
22633;DHT22;11483;55.828;37.488;2023-05-07T03:35:23;1.30;99.90
22633;DHT22;11483;55.828;37.488;2023-05-07T03:37:49;1.30;99.90
22633;DHT22;11483;55.828;37.488;2023-05-07T03:40:15;1.30;99.90
22633;DHT22;11483;55.828;37.488;2023-05-07T03:42:40;1.20;99.90
22633;DHT22;11483;55.828;37.488;2023-05-07T03:45:07;1.30;99.90
22633;DHT22;11483;55.828;37.488;2023-05-07T03:47:33;1.30;99.90
22633;DHT22;11483;55.828;37.488;2023-05-07T03:49:58;1.40;99.90
22633;DHT22;11483;55.828;37.488;2023-05-07T03:52:24;1.40;99.90
22633;DHT22;11483;55.828;37.488;2023-05-07T03:54:52;1.50;99.90
22633;DHT22;11483;55.828;37.488;2023-05-07T03:57:18;1.50;99.90
22633;DHT22;11483;55.828;37.488;2023-05-07T03:59:44;1.50;99.90
22633;DHT22;11483;55.828;37.488;2023-05-07T04:02:10;1.60;99.90
22633;DHT22;11483;55.828;37.488;2023-05-07T04:04:36;1.60;99.90
22633;DHT22;11483;55.828;37.488;2023-05-07T04:07:02;1.60;99.90
22633;DHT22;11483;55.828;37.488;2023-05-07T04:09:28;1.70;99.90
22633;DHT22;11483;55.828;37.488;2023-05-07T04:11:54;1.80;99.90
22633;DHT22;11483;55.828;37.488;2023-05-07T04:14:20;1.90;99.90
22633;DHT22;11483;55.828;37.488;2023-05-07T04:16:46;1.70;99.90
22633;DHT22;11483;55.828;37.488;2023-05-07T04:19:11;1.80;99.90
22633;DHT22;11483;55.828;37.488;2023-05-07T04:21:37;1.90;99.90
22633;DHT22;11483;55.828;37.488;2023-05-07T04:24:04;1.90;99.90
22633;DHT22;11483;55.828;37.488;2023-05-07T04:26:29;2.00;99.90
22633;DHT22;11483;55.828;37.488;2023-05-07T04:28:55;1.90;99.90
22633;DHT22;11483;55.828;37.488;2023-05-07T04:31:23;2.10;99.90
22633;DHT22;11483;55.828;37.488;2023-05-07T04:33:49;2.20;99.90
22633;DHT22;11483;55.828;37.488;2023-05-07T04:36:16;2.30;99.90
22633;DHT22;11483;55.828;37.488;2023-05-07T04:38:41;2.20;99.90
22633;DHT22;11483;55.828;37.488;2023-05-07T04:41:09;2.30;99.90
22633;DHT22;11483;55.828;37.488;2023-05-07T04:43:35;2.40;99.90
22633;DHT22;11483;55.828;37.488;2023-05-07T04:46:01;2.40;99.90
22633;DHT22;11483;55.828;37.488;2023-05-07T04:48:27;2.40;99.90
22633;DHT22;11483;55.828;37.488;2023-05-07T04:50:54;2.60;99.90
22633;DHT22;11483;55.828;37.488;2023-05-07T04:53:20;2.60;99.90
22633;DHT22;11483;55.828;37.488;2023-05-07T04:55:45;2.60;99.90
22633;DHT22;11483;55.828;37.488;2023-05-07T04:58:12;2.70;99.90
22633;DHT22;11483;55.828;37.488;2023-05-07T05:00:38;2.80;99.90
22633;DHT22;11483;55.828;37.488;2023-05-07T05:03:06;2.90;99.90
22633;DHT22;11483;55.828;37.488;2023-05-07T05:05:32;3.00;99.90
22633;DHT22;11483;55.828;37.488;2023-05-07T05:07:58;3.00;99.90
22633;DHT22;11483;55.828;37.488;2023-05-07T05:10:24;3.10;99.90
22633;DHT22;11483;55.828;37.488;2023-05-07T05:12:51;2.80;99.90
22633;DHT22;11483;55.828;37.488;2023-05-07T05:15:17;3.20;99.90
22633;DHT22;11483;55.828;37.488;2023-05-07T05:17:42;3.30;99.90
22633;DHT22;11483;55.828;37.488;2023-05-07T05:20:08;3.20;99.90
22633;DHT22;11483;55.828;37.488;2023-05-07T05:22:36;3.30;99.90
22633;DHT22;11483;55.828;37.488;2023-05-07T05:25:02;3.40;99.90
22633;DHT22;11483;55.828;37.488;2023-05-07T05:27:28;3.50;99.90
22633;DHT22;11483;55.828;37.488;2023-05-07T05:29:54;3.60;99.90
22633;DHT22;11483;55.828;37.488;2023-05-07T05:32:20;3.70;99.90
22633;DHT22;11483;55.828;37.488;2023-05-07T05:34:46;3.90;99.90
22633;DHT22;11483;55.828;37.488;2023-05-07T05:37:12;3.90;99.90
22633;DHT22;11483;55.828;37.488;2023-05-07T05:39:38;3.90;99.90
22633;DHT22;11483;55.828;37.488;2023-05-07T05:42:04;4.10;99.90
22633;DHT22;11483;55.828;37.488;2023-05-07T05:44:29;4.20;99.90
22633;DHT22;11483;55.828;37.488;2023-05-07T05:46:55;4.30;99.90
22633;DHT22;11483;55.828;37.488;2023-05-07T05:49:23;4.40;99.90
22633;DHT22;11483;55.828;37.488;2023-05-07T05:51:49;4.40;99.90
22633;DHT22;11483;55.828;37.488;2023-05-07T05:54:14;4.50;99.90
22633;DHT22;11483;55.828;37.488;2023-05-07T05:56:42;4.50;99.90
22633;DHT22;11483;55.828;37.488;2023-05-07T05:59:08;4.50;99.90
22633;DHT22;11483;55.828;37.488;2023-05-07T06:01:34;4.50;99.90
22633;DHT22;11483;55.828;37.488;2023-05-07T06:03:59;4.60;99.90
22633;DHT22;11483;55.828;37.488;2023-05-07T06:06:26;4.60;99.90
22633;DHT22;11483;55.828;37.488;2023-05-07T06:08:52;4.80;99.90
22633;DHT22;11483;55.828;37.488;2023-05-07T06:11:18;5.10;99.90
22633;DHT22;11483;55.828;37.488;2023-05-07T06:13:44;5.40;99.90
22633;DHT22;11483;55.828;37.488;2023-05-07T06:16:10;5.60;99.90
22633;DHT22;11483;55.828;37.488;2023-05-07T06:18:36;5.70;99.90
22633;DHT22;11483;55.828;37.488;2023-05-07T06:21:02;5.90;99.90
22633;DHT22;11483;55.828;37.488;2023-05-07T06:23:28;6.10;99.90
22633;DHT22;11483;55.828;37.488;2023-05-07T06:25:53;6.30;99.90
22633;DHT22;11483;55.828;37.488;2023-05-07T06:28:19;6.50;99.90
22633;DHT22;11483;55.828;37.488;2023-05-07T06:30:45;6.20;99.90
22633;DHT22;11483;55.828;37.488;2023-05-07T06:33:11;6.00;99.90
22633;DHT22;11483;55.828;37.488;2023-05-07T06:35:37;6.20;99.90
22633;DHT22;11483;55.828;37.488;2023-05-07T06:38:03;6.30;99.90
22633;DHT22;11483;55.828;37.488;2023-05-07T06:40:28;6.30;99.90
22633;DHT22;11483;55.828;37.488;2023-05-07T06:42:54;6.50;99.90
22633;DHT22;11483;55.828;37.488;2023-05-07T06:45:20;6.30;99.90
22633;DHT22;11483;55.828;37.488;2023-05-07T06:47:46;6.20;99.90
22633;DHT22;11483;55.828;37.488;2023-05-07T06:50:12;5.70;99.90
22633;DHT22;11483;55.828;37.488;2023-05-07T06:52:38;5.90;99.90
22633;DHT22;11483;55.828;37.488;2023-05-07T06:55:05;6.00;99.90
22633;DHT22;11483;55.828;37.488;2023-05-07T06:57:31;6.30;99.90
22633;DHT22;11483;55.828;37.488;2023-05-07T06:59:56;6.30;99.90
22633;DHT22;11483;55.828;37.488;2023-05-07T07:02:22;6.80;99.90
22633;DHT22;11483;55.828;37.488;2023-05-07T07:04:48;6.90;99.90
22633;DHT22;11483;55.828;37.488;2023-05-07T07:07:14;6.70;98.90
22633;DHT22;11483;55.828;37.488;2023-05-07T07:09:40;6.60;98.90
22633;DHT22;11483;55.828;37.488;2023-05-07T07:12:06;6.40;98.00
22633;DHT22;11483;55.828;37.488;2023-05-07T07:14:32;6.70;98.30
22633;DHT22;11483;55.828;37.488;2023-05-07T07:16:58;6.80;97.70
22633;DHT22;11483;55.828;37.488;2023-05-07T07:19:23;7.10;97.50
22633;DHT22;11483;55.828;37.488;2023-05-07T07:21:49;7.00;96.00
22633;DHT22;11483;55.828;37.488;2023-05-07T07:24:15;7.10;95.30
22633;DHT22;11483;55.828;37.488;2023-05-07T07:26:44;7.20;95.30
22633;DHT22;11483;55.828;37.488;2023-05-07T07:29:10;7.20;95.20
22633;DHT22;11483;55.828;37.488;2023-05-07T07:31:36;7.40;94.50
22633;DHT22;11483;55.828;37.488;2023-05-07T07:34:02;7.00;93.70
22633;DHT22;11483;55.828;37.488;2023-05-07T07:36:28;7.20;94.40
22633;DHT22;11483;55.828;37.488;2023-05-07T07:38:54;7.20;92.90
22633;DHT22;11483;55.828;37.488;2023-05-07T07:41:20;7.30;92.70
22633;DHT22;11483;55.828;37.488;2023-05-07T07:43:45;7.40;92.20
22633;DHT22;11483;55.828;37.488;2023-05-07T07:46:12;7.40;91.70
22633;DHT22;11483;55.828;37.488;2023-05-07T07:48:38;7.60;91.60
22633;DHT22;11483;55.828;37.488;2023-05-07T07:51:04;7.70;91.80
22633;DHT22;11483;55.828;37.488;2023-05-07T07:53:30;7.30;91.30
22633;DHT22;11483;55.828;37.488;2023-05-07T07:55:56;7.40;91.30
22633;DHT22;11483;55.828;37.488;2023-05-07T07:58:22;7.10;91.60
22633;DHT22;11483;55.828;37.488;2023-05-07T08:00:48;7.60;91.40
22633;DHT22;11483;55.828;37.488;2023-05-07T08:03:14;7.80;90.30
22633;DHT22;11483;55.828;37.488;2023-05-07T08:05:42;8.30;90.20
22633;DHT22;11483;55.828;37.488;2023-05-07T08:08:09;8.90;90.10
22633;DHT22;11483;55.828;37.488;2023-05-07T08:10:35;8.90;86.30
22633;DHT22;11483;55.828;37.488;2023-05-07T08:13:03;8.50;84.40
22633;DHT22;11483;55.828;37.488;2023-05-07T08:15:30;8.70;82.10
22633;DHT22;11483;55.828;37.488;2023-05-07T08:17:56;8.30;82.10
22633;DHT22;11483;55.828;37.488;2023-05-07T08:20:23;8.30;82.70
22633;DHT22;11483;55.828;37.488;2023-05-07T08:22:49;8.50;82.10
22633;DHT22;11483;55.828;37.488;2023-05-07T08:25:15;9.00;82.00
22633;DHT22;11483;55.828;37.488;2023-05-07T08:27:41;9.50;78.20
22633;DHT22;11483;55.828;37.488;2023-05-07T08:30:07;9.60;76.80
22633;DHT22;11483;55.828;37.488;2023-05-07T08:32:33;10.10;74.40
22633;DHT22;11483;55.828;37.488;2023-05-07T08:35:00;11.10;73.20
22633;DHT22;11483;55.828;37.488;2023-05-07T08:37:25;12.40;69.00
22633;DHT22;11483;55.828;37.488;2023-05-07T08:39:51;13.80;65.10
22633;DHT22;11483;55.828;37.488;2023-05-07T08:42:17;14.30;61.80
22633;DHT22;11483;55.828;37.488;2023-05-07T08:44:45;14.10;60.30
22633;DHT22;11483;55.828;37.488;2023-05-07T08:47:12;12.80;61.60
22633;DHT22;11483;55.828;37.488;2023-05-07T08:49:38;12.10;62.40
22633;DHT22;11483;55.828;37.488;2023-05-07T08:52:04;11.00;62.70
22633;DHT22;11483;55.828;37.488;2023-05-07T08:54:31;10.10;63.90
22633;DHT22;11483;55.828;37.488;2023-05-07T08:56:57;10.50;64.50
22633;DHT22;11483;55.828;37.488;2023-05-07T08:59:22;12.00;63.50
22633;DHT22;11483;55.828;37.488;2023-05-07T09:01:48;13.10;60.00
22633;DHT22;11483;55.828;37.488;2023-05-07T09:04:14;14.20;60.00
22633;DHT22;11483;55.828;37.488;2023-05-07T09:06:40;15.30;56.90
22633;DHT22;11483;55.828;37.488;2023-05-07T09:09:07;16.00;57.00
22633;DHT22;11483;55.828;37.488;2023-05-07T09:11:33;16.70;54.00
22633;DHT22;11483;55.828;37.488;2023-05-07T09:13:59;17.60;52.10
22633;DHT22;11483;55.828;37.488;2023-05-07T09:16:29;17.10;49.50
22633;DHT22;11483;55.828;37.488;2023-05-07T09:18:58;15.40;49.70
22633;DHT22;11483;55.828;37.488;2023-05-07T09:21:24;14.30;51.30
22633;DHT22;11483;55.828;37.488;2023-05-07T09:23:51;13.40;53.40
22633;DHT22;11483;55.828;37.488;2023-05-07T09:26:18;12.90;54.70
22633;DHT22;11483;55.828;37.488;2023-05-07T09:28:46;13.40;55.70
22633;DHT22;11483;55.828;37.488;2023-05-07T09:31:12;14.90;55.00
22633;DHT22;11483;55.828;37.488;2023-05-07T09:33:39;16.40;52.80
22633;DHT22;11483;55.828;37.488;2023-05-07T09:36:06;15.30;51.10
22633;DHT22;11483;55.828;37.488;2023-05-07T09:38:33;14.60;51.60
22633;DHT22;11483;55.828;37.488;2023-05-07T09:41:06;13.20;51.70
22633;DHT22;11483;55.828;37.488;2023-05-07T09:43:34;12.80;53.60
22633;DHT22;11483;55.828;37.488;2023-05-07T09:46:07;12.50;54.40
22633;DHT22;11483;55.828;37.488;2023-05-07T09:48:38;12.10;54.50
22633;DHT22;11483;55.828;37.488;2023-05-07T09:51:28;11.40;55.50
22633;DHT22;11483;55.828;37.488;2023-05-07T09:53:56;11.10;57.30
22633;DHT22;11483;55.828;37.488;2023-05-07T09:56:22;12.10;57.60
22633;DHT22;11483;55.828;37.488;2023-05-07T09:58:49;13.80;55.60
22633;DHT22;11483;55.828;37.488;2023-05-07T10:01:19;15.40;53.00
22633;DHT22;11483;55.828;37.488;2023-05-07T10:03:47;17.30;52.90
22633;DHT22;11483;55.828;37.488;2023-05-07T10:06:14;19.00;49.30
22633;DHT22;11483;55.828;37.488;2023-05-07T10:08:42;19.00;46.00
22633;DHT22;11483;55.828;37.488;2023-05-07T10:11:08;19.30;46.00
22633;DHT22;11483;55.828;37.488;2023-05-07T10:13:35;20.00;45.40
22633;DHT22;11483;55.828;37.488;2023-05-07T10:16:04;20.00;43.80
22633;DHT22;11483;55.828;37.488;2023-05-07T10:18:31;19.50;43.80
22633;DHT22;11483;55.828;37.488;2023-05-07T10:21:08;18.20;44.10
22633;DHT22;11483;55.828;37.488;2023-05-07T10:23:37;16.20;45.50
22633;DHT22;11483;55.828;37.488;2023-05-07T10:26:06;14.70;47.70
22633;DHT22;11483;55.828;37.488;2023-05-07T10:28:37;13.40;49.90
22633;DHT22;11483;55.828;37.488;2023-05-07T10:33:53;11.40;54.30
22633;DHT22;11483;55.828;37.488;2023-05-07T10:36:21;11.10;54.40
22633;DHT22;11483;55.828;37.488;2023-05-07T10:38:48;12.30;54.20
22633;DHT22;11483;55.828;37.488;2023-05-07T10:41:14;13.90;52.20
22633;DHT22;11483;55.828;37.488;2023-05-07T10:43:43;15.40;48.90
22633;DHT22;11483;55.828;37.488;2023-05-07T10:51:35;18.50;45.90
22633;DHT22;11483;55.828;37.488;2023-05-07T10:56:43;16.80;44.90
22633;DHT22;11483;55.828;37.488;2023-05-07T11:02:02;12.70;50.60
22633;DHT22;11483;55.828;37.488;2023-05-07T11:04:30;11.70;52.30
22633;DHT22;11483;55.828;37.488;2023-05-07T11:15:14;15.10;48.40
22633;DHT22;11483;55.828;37.488;2023-05-07T11:17:57;15.40;48.00
22633;DHT22;11483;55.828;37.488;2023-05-07T11:20:46;16.10;47.40
22633;DHT22;11483;55.828;37.488;2023-05-07T11:26:03;17.40;46.30
22633;DHT22;11483;55.828;37.488;2023-05-07T11:28:29;19.80;44.60
22633;DHT22;11483;55.828;37.488;2023-05-07T11:30:56;18.60;42.60
22633;DHT22;11483;55.828;37.488;2023-05-07T11:33:23;17.10;43.70
22633;DHT22;11483;55.828;37.488;2023-05-07T11:35:55;15.70;45.70
22633;DHT22;11483;55.828;37.488;2023-05-07T11:38:21;14.40;47.30
22633;DHT22;11483;55.828;37.488;2023-05-07T11:40:58;13.30;48.60
22633;DHT22;11483;55.828;37.488;2023-05-07T11:43:26;12.40;50.30
22633;DHT22;11483;55.828;37.488;2023-05-07T11:45:53;11.70;52.00
22633;DHT22;11483;55.828;37.488;2023-05-07T11:48:21;10.90;53.90
22633;DHT22;11483;55.828;37.488;2023-05-07T11:51:01;10.90;54.30
22633;DHT22;11483;55.828;37.488;2023-05-07T11:53:38;10.90;54.50
22633;DHT22;11483;55.828;37.488;2023-05-07T11:56:17;11.00;54.80
22633;DHT22;11483;55.828;37.488;2023-05-07T11:58:44;10.90;56.10
22633;DHT22;11483;55.828;37.488;2023-05-07T12:01:11;11.20;55.80
22633;DHT22;11483;55.828;37.488;2023-05-07T12:03:40;12.60;54.90
22633;DHT22;11483;55.828;37.488;2023-05-07T12:06:08;14.20;53.30
22633;DHT22;11483;55.828;37.488;2023-05-07T12:08:37;16.20;50.20
22633;DHT22;11483;55.828;37.488;2023-05-07T12:11:03;17.50;46.10
22633;DHT22;11483;55.828;37.488;2023-05-07T12:13:32;18.10;44.10
22633;DHT22;11483;55.828;37.488;2023-05-07T12:15:58;18.90;42.70
22633;DHT22;11483;55.828;37.488;2023-05-07T12:18:24;18.30;42.10
22633;DHT22;11483;55.828;37.488;2023-05-07T12:20:51;16.90;43.00
22633;DHT22;11483;55.828;37.488;2023-05-07T12:23:17;18.20;44.20
22633;DHT22;11483;55.828;37.488;2023-05-07T12:25:43;17.70;44.40
22633;DHT22;11483;55.828;37.488;2023-05-07T12:28:19;18.20;43.50
22633;DHT22;11483;55.828;37.488;2023-05-07T12:30:49;17.90;43.20
22633;DHT22;11483;55.828;37.488;2023-05-07T12:33:24;16.90;44.10
22633;DHT22;11483;55.828;37.488;2023-05-07T12:35:50;16.90;45.60
22633;DHT22;11483;55.828;37.488;2023-05-07T12:38:17;17.80;44.50
22633;DHT22;11483;55.828;37.488;2023-05-07T12:40:55;18.30;44.20
22633;DHT22;11483;55.828;37.488;2023-05-07T12:43:26;18.80;43.80
22633;DHT22;11483;55.828;37.488;2023-05-07T12:45:55;18.30;44.20
22633;DHT22;11483;55.828;37.488;2023-05-07T12:48:22;17.30;43.20
22633;DHT22;11483;55.828;37.488;2023-05-07T12:50:52;16.20;44.80
22633;DHT22;11483;55.828;37.488;2023-05-07T12:53:21;15.00;46.40
22633;DHT22;11483;55.828;37.488;2023-05-07T12:55:49;14.60;47.70
22633;DHT22;11483;55.828;37.488;2023-05-07T12:58:28;14.20;48.70
22633;DHT22;11483;55.828;37.488;2023-05-07T13:00:55;13.40;49.30
22633;DHT22;11483;55.828;37.488;2023-05-07T13:03:31;12.90;49.80
22633;DHT22;11483;55.828;37.488;2023-05-07T13:06:01;12.70;49.80
22633;DHT22;11483;55.828;37.488;2023-05-07T13:08:39;12.50;50.60
22633;DHT22;11483;55.828;37.488;2023-05-07T13:11:09;12.20;50.40
22633;DHT22;11483;55.828;37.488;2023-05-07T13:13:37;11.40;52.10
22633;DHT22;11483;55.828;37.488;2023-05-07T13:16:03;10.80;53.30
22633;DHT22;11483;55.828;37.488;2023-05-07T13:18:31;10.60;53.80
22633;DHT22;11483;55.828;37.488;2023-05-07T13:20:57;10.60;55.10
22633;DHT22;11483;55.828;37.488;2023-05-07T13:23:23;10.50;54.70
22633;DHT22;11483;55.828;37.488;2023-05-07T13:25:50;10.50;55.70
22633;DHT22;11483;55.828;37.488;2023-05-07T13:28:18;10.30;55.20
22633;DHT22;11483;55.828;37.488;2023-05-07T13:30:43;10.10;55.20
22633;DHT22;11483;55.828;37.488;2023-05-07T13:33:10;9.90;55.70
22633;DHT22;11483;55.828;37.488;2023-05-07T13:35:36;10.20;56.30
22633;DHT22;11483;55.828;37.488;2023-05-07T13:38:01;10.40;56.70
22633;DHT22;11483;55.828;37.488;2023-05-07T13:40:27;11.90;55.60
22633;DHT22;11483;55.828;37.488;2023-05-07T13:42:53;13.70;52.80
22633;DHT22;11483;55.828;37.488;2023-05-07T13:45:19;15.10;50.30
22633;DHT22;11483;55.828;37.488;2023-05-07T13:47:46;16.00;48.40
22633;DHT22;11483;55.828;37.488;2023-05-07T13:50:12;17.20;48.00
22633;DHT22;11483;55.828;37.488;2023-05-07T13:52:42;16.70;45.90
22633;DHT22;11483;55.828;37.488;2023-05-07T13:55:11;17.10;47.50
22633;DHT22;11483;55.828;37.488;2023-05-07T13:57:38;18.00;44.70
22633;DHT22;11483;55.828;37.488;2023-05-07T14:00:04;18.70;44.30
22633;DHT22;11483;55.828;37.488;2023-05-07T14:02:31;19.40;43.20
22633;DHT22;11483;55.828;37.488;2023-05-07T14:04:57;18.80;42.60
22633;DHT22;11483;55.828;37.488;2023-05-07T14:07:23;16.40;43.70
22633;DHT22;11483;55.828;37.488;2023-05-07T14:09:49;15.80;44.70
22633;DHT22;11483;55.828;37.488;2023-05-07T14:12:15;14.90;45.70
22633;DHT22;11483;55.828;37.488;2023-05-07T14:14:41;13.60;47.30
22633;DHT22;11483;55.828;37.488;2023-05-07T14:17:07;13.10;48.00
22633;DHT22;11483;55.828;37.488;2023-05-07T14:19:33;12.40;49.30
22633;DHT22;11483;55.828;37.488;2023-05-07T14:21:59;12.10;50.00
22633;DHT22;11483;55.828;37.488;2023-05-07T14:24:25;11.20;51.80
22633;DHT22;11483;55.828;37.488;2023-05-07T14:26:51;11.00;53.40
22633;DHT22;11483;55.828;37.488;2023-05-07T14:29:17;10.80;54.40
22633;DHT22;11483;55.828;37.488;2023-05-07T14:31:45;10.90;54.10
22633;DHT22;11483;55.828;37.488;2023-05-07T14:34:38;11.10;53.70
22633;DHT22;11483;55.828;37.488;2023-05-07T14:37:45;11.60;52.60
22633;DHT22;11483;55.828;37.488;2023-05-07T14:40:11;12.10;51.00
22633;DHT22;11483;55.828;37.488;2023-05-07T14:42:37;12.80;50.40
22633;DHT22;11483;55.828;37.488;2023-05-07T14:45:03;12.60;49.70
22633;DHT22;11483;55.828;37.488;2023-05-07T14:47:29;12.30;49.90
22633;DHT22;11483;55.828;37.488;2023-05-07T14:49:55;11.90;49.50
22633;DHT22;11483;55.828;37.488;2023-05-07T14:52:22;11.70;51.20
22633;DHT22;11483;55.828;37.488;2023-05-07T14:54:48;12.30;50.90
22633;DHT22;11483;55.828;37.488;2023-05-07T14:57:14;13.10;50.10
22633;DHT22;11483;55.828;37.488;2023-05-07T14:59:42;14.30;49.40
22633;DHT22;11483;55.828;37.488;2023-05-07T15:02:09;13.90;49.40
22633;DHT22;11483;55.828;37.488;2023-05-07T15:04:35;12.70;51.10
22633;DHT22;11483;55.828;37.488;2023-05-07T15:07:01;12.50;51.10
22633;DHT22;11483;55.828;37.488;2023-05-07T15:09:27;12.30;50.80
22633;DHT22;11483;55.828;37.488;2023-05-07T15:11:53;11.50;51.10
22633;DHT22;11483;55.828;37.488;2023-05-07T15:14:19;11.40;51.00
22633;DHT22;11483;55.828;37.488;2023-05-07T15:16:50;11.20;51.50
22633;DHT22;11483;55.828;37.488;2023-05-07T15:19:16;10.90;52.50
22633;DHT22;11483;55.828;37.488;2023-05-07T15:21:42;10.40;53.20
22633;DHT22;11483;55.828;37.488;2023-05-07T15:24:08;10.10;55.30
22633;DHT22;11483;55.828;37.488;2023-05-07T15:26:34;10.00;54.30
22633;DHT22;11483;55.828;37.488;2023-05-07T15:29:00;9.80;55.10
22633;DHT22;11483;55.828;37.488;2023-05-07T15:31:28;9.90;55.30
22633;DHT22;11483;55.828;37.488;2023-05-07T15:33:54;9.90;55.50
22633;DHT22;11483;55.828;37.488;2023-05-07T15:36:21;9.80;55.70
22633;DHT22;11483;55.828;37.488;2023-05-07T15:38:51;9.80;55.50
22633;DHT22;11483;55.828;37.488;2023-05-07T15:41:20;9.40;56.30
22633;DHT22;11483;55.828;37.488;2023-05-07T15:43:49;9.50;56.40
22633;DHT22;11483;55.828;37.488;2023-05-07T15:46:19;9.50;56.10
22633;DHT22;11483;55.828;37.488;2023-05-07T15:48:46;9.40;56.70